sensor_id;sensor_type;location;lat;lon;timestamp;pressure;altitude;pressure_sealevel;temperature;humidity
55994;BME280;67425;52.126;20.638;2023-04-03T00:01:30;57557.88;;;-144.78;44.40
55994;BME280;67425;52.126;20.638;2023-04-03T00:03:55;57593.19;;;-144.78;45.58
55994;BME280;67425;52.126;20.638;2023-04-03T00:06:22;57582.81;;;-144.78;45.18
55994;BME280;67425;52.126;20.638;2023-04-03T00:08:47;57640.94;;;-144.78;47.40
55994;BME280;67425;52.126;20.638;2023-04-03T00:11:13;57613.94;;;-144.78;46.68
55994;BME280;67425;52.126;20.638;2023-04-03T00:13:39;57595.25;;;-144.78;45.32
55994;BME280;67425;52.126;20.638;2023-04-03T00:16:05;57591.09;;;-144.78;45.87
55994;BME280;67425;52.126;20.638;2023-04-03T00:18:31;57599.41;;;-144.78;46.25
55994;BME280;67425;52.126;20.638;2023-04-03T00:20:56;57591.09;;;-144.78;45.88
55994;BME280;67425;52.126;20.638;2023-04-03T00:23:22;57611.88;;;-144.78;44.69
55994;BME280;67425;52.126;20.638;2023-04-03T00:25:49;57607.72;;;-144.78;45.91
55994;BME280;67425;52.126;20.638;2023-04-03T00:28:15;57611.88;;;-144.78;46.16
55994;BME280;67425;52.126;20.638;2023-04-03T00:30:40;57586.94;;;-144.78;45.05
55994;BME280;67425;52.126;20.638;2023-04-03T00:33:06;57584.88;;;-144.78;44.98
55994;BME280;67425;52.126;20.638;2023-04-03T00:35:31;57609.78;;;-144.78;45.76
55994;BME280;67425;52.126;20.638;2023-04-03T00:37:57;57603.56;;;-144.78;44.80
55994;BME280;67425;52.126;20.638;2023-04-03T00:40:24;57618.09;;;-144.78;45.99
55994;BME280;67425;52.126;20.638;2023-04-03T00:42:58;57607.72;;;-144.78;45.26
55994;BME280;67425;52.126;20.638;2023-04-03T00:45:38;57607.72;;;-144.78;44.46
55994;BME280;67425;52.126;20.638;2023-04-03T00:48:07;57618.09;;;-144.78;44.64
55994;BME280;67425;52.126;20.638;2023-04-03T00:50:36;57622.25;;;-144.78;45.30
55994;BME280;67425;52.126;20.638;2023-04-03T00:53:03;57580.72;;;-144.78;43.62
55994;BME280;67425;52.126;20.638;2023-04-03T00:55:30;57626.41;;;-144.78;44.66
55994;BME280;67425;52.126;20.638;2023-04-03T00:57:56;57609.78;;;-144.78;44.41
55994;BME280;67425;52.126;20.638;2023-04-03T01:00:23;57616.03;;;-144.78;43.82
55994;BME280;67425;52.126;20.638;2023-04-03T01:02:50;57576.56;;;-144.78;44.08
55994;BME280;67425;52.126;20.638;2023-04-03T01:05:17;57605.66;;;-144.78;44.50
55994;BME280;67425;52.126;20.638;2023-04-03T01:07:44;57634.72;;;-144.78;44.52
55994;BME280;67425;52.126;20.638;2023-04-03T01:10:12;57578.66;;;-144.78;43.93
55994;BME280;67425;52.126;20.638;2023-04-03T01:12:41;57611.88;;;-144.78;44.60
55994;BME280;67425;52.126;20.638;2023-04-03T01:15:27;57630.56;;;-144.78;45.06
55994;BME280;67425;52.126;20.638;2023-04-03T01:17:57;57618.09;;;-144.78;44.86
55994;BME280;67425;52.126;20.638;2023-04-03T01:28:02;57599.41;;;-144.78;43.27
55994;BME280;67425;52.126;20.638;2023-04-03T01:30:31;57609.78;;;-144.78;43.92
55994;BME280;67425;52.126;20.638;2023-04-03T01:32:57;57638.88;;;-144.78;44.86
55994;BME280;67425;52.126;20.638;2023-04-03T01:35:23;57634.72;;;-144.78;44.02
55994;BME280;67425;52.126;20.638;2023-04-03T01:37:48;57624.34;;;-144.78;44.17
55994;BME280;67425;52.126;20.638;2023-04-03T01:40:14;57634.72;;;-144.78;44.42
55994;BME280;67425;52.126;20.638;2023-04-03T01:42:39;57616.03;;;-144.78;44.38
55994;BME280;67425;52.126;20.638;2023-04-03T01:45:05;57605.66;;;-144.78;44.28
55994;BME280;67425;52.126;20.638;2023-04-03T01:47:30;57616.03;;;-144.78;44.00
55994;BME280;67425;52.126;20.638;2023-04-03T01:49:56;57613.94;;;-144.78;44.27
55994;BME280;67425;52.126;20.638;2023-04-03T01:52:21;57616.03;;;-144.78;44.02
55994;BME280;67425;52.126;20.638;2023-04-03T01:54:46;57618.09;;;-144.78;44.15
55994;BME280;67425;52.126;20.638;2023-04-03T01:57:12;57613.94;;;-144.78;44.18
55994;BME280;67425;52.126;20.638;2023-04-03T01:59:38;57603.56;;;-144.78;42.76
55994;BME280;67425;52.126;20.638;2023-04-03T02:02:04;57638.88;;;-144.78;44.23
55994;BME280;67425;52.126;20.638;2023-04-03T02:04:29;57605.66;;;-144.78;44.51
55994;BME280;67425;52.126;20.638;2023-04-03T02:06:55;57616.03;;;-144.78;43.94
55994;BME280;67425;52.126;20.638;2023-04-03T02:09:20;57626.41;;;-144.78;43.86
55994;BME280;67425;52.126;20.638;2023-04-03T02:11:45;57618.09;;;-144.78;43.38
55994;BME280;67425;52.126;20.638;2023-04-03T02:14:10;57582.81;;;-144.78;43.37
55994;BME280;67425;52.126;20.638;2023-04-03T02:16:36;57638.88;;;-144.78;44.49
55994;BME280;67425;52.126;20.638;2023-04-03T02:19:01;57613.94;;;-144.78;43.71
55994;BME280;67425;52.126;20.638;2023-04-03T02:21:27;57603.56;;;-144.78;43.86
55994;BME280;67425;52.126;20.638;2023-04-03T02:23:53;57645.09;;;-144.78;44.74
55994;BME280;67425;52.126;20.638;2023-04-03T02:26:18;57622.25;;;-144.78;44.75
55994;BME280;67425;52.126;20.638;2023-04-03T02:28:45;57630.56;;;-144.78;44.12
55994;BME280;67425;52.126;20.638;2023-04-03T02:31:11;57632.66;;;-144.78;44.51
55994;BME280;67425;52.126;20.638;2023-04-03T02:33:37;57632.66;;;-144.78;44.59
55994;BME280;67425;52.126;20.638;2023-04-03T02:36:04;57628.50;;;-144.78;44.57
55994;BME280;67425;52.126;20.638;2023-04-03T02:38:30;57634.72;;;-144.78;44.18
55994;BME280;67425;52.126;20.638;2023-04-03T02:41:05;57643.03;;;-144.78;44.17
55994;BME280;67425;52.126;20.638;2023-04-03T02:43:32;57659.63;;;-144.78;45.40
55994;BME280;67425;52.126;20.638;2023-04-03T02:45:57;57649.25;;;-144.78;44.86
55994;BME280;67425;52.126;20.638;2023-04-03T02:48:23;57628.50;;;-144.78;44.95
55994;BME280;67425;52.126;20.638;2023-04-03T02:50:48;57599.41;;;-144.78;43.79
55994;BME280;67425;52.126;20.638;2023-04-03T02:53:14;57626.41;;;-144.78;44.72
55994;BME280;67425;52.126;20.638;2023-04-03T02:55:40;57616.03;;;-144.78;44.17
55994;BME280;67425;52.126;20.638;2023-04-03T02:58:05;57622.25;;;-144.78;43.52
55994;BME280;67425;52.126;20.638;2023-04-03T03:00:31;57640.94;;;-144.78;44.40
55994;BME280;67425;52.126;20.638;2023-04-03T03:02:56;57605.66;;;-144.78;43.99
55994;BME280;67425;52.126;20.638;2023-04-03T03:05:22;57632.66;;;-144.78;44.19
55994;BME280;67425;52.126;20.638;2023-04-03T03:07:47;57634.72;;;-144.78;44.69
55994;BME280;67425;52.126;20.638;2023-04-03T03:10:13;57638.88;;;-144.78;43.41
55994;BME280;67425;52.126;20.638;2023-04-03T03:12:38;57647.19;;;-144.78;44.68
55994;BME280;67425;52.126;20.638;2023-04-03T03:15:04;57626.41;;;-144.78;44.31
55994;BME280;67425;52.126;20.638;2023-04-03T03:17:29;57618.09;;;-144.78;43.71
55994;BME280;67425;52.126;20.638;2023-04-03T03:19:55;57645.09;;;-144.78;43.46
55994;BME280;67425;52.126;20.638;2023-04-03T03:22:20;57655.50;;;-144.78;44.55
55994;BME280;67425;52.126;20.638;2023-04-03T03:24:45;57622.25;;;-144.78;44.21
55994;BME280;67425;52.126;20.638;2023-04-03T03:27:11;57611.88;;;-144.78;43.51
55994;BME280;67425;52.126;20.638;2023-04-03T03:29:37;57622.25;;;-144.78;44.63
55994;BME280;67425;52.126;20.638;2023-04-03T03:32:02;57645.09;;;-144.78;44.69
55994;BME280;67425;52.126;20.638;2023-04-03T03:34:28;57661.72;;;-144.78;45.19
55994;BME280;67425;52.126;20.638;2023-04-03T03:36:53;57632.66;;;-144.78;44.69
55994;BME280;67425;52.126;20.638;2023-04-03T03:39:18;57622.25;;;-144.78;44.80
55994;BME280;67425;52.126;20.638;2023-04-03T03:41:44;57682.50;;;-144.78;44.98
55994;BME280;67425;52.126;20.638;2023-04-03T03:44:09;57653.41;;;-144.78;45.55
55994;BME280;67425;52.126;20.638;2023-04-03T03:46:35;57651.34;;;-144.78;44.67
55994;BME280;67425;52.126;20.638;2023-04-03T03:49:00;57626.41;;;-144.78;43.80
55994;BME280;67425;52.126;20.638;2023-04-03T03:51:25;57618.09;;;-144.78;44.13
55994;BME280;67425;52.126;20.638;2023-04-03T03:53:51;57645.09;;;-144.78;44.33
55994;BME280;67425;52.126;20.638;2023-04-03T03:56:16;57599.41;;;-144.78;42.72
55994;BME280;67425;52.126;20.638;2023-04-03T03:58:41;57624.34;;;-144.78;42.91
55994;BME280;67425;52.126;20.638;2023-04-03T04:01:07;57618.09;;;-144.78;44.42
55994;BME280;67425;52.126;20.638;2023-04-03T04:03:33;57670.03;;;-144.78;45.26
55994;BME280;67425;52.126;20.638;2023-04-03T04:05:58;57626.41;;;-144.78;44.17
55994;BME280;67425;52.126;20.638;2023-04-03T04:08:24;57616.03;;;-144.78;43.58
55994;BME280;67425;52.126;20.638;2023-04-03T04:10:50;57636.78;;;-144.78;44.08
55994;BME280;67425;52.126;20.638;2023-04-03T04:13:15;57657.56;;;-144.78;45.50
55994;BME280;67425;52.126;20.638;2023-04-03T04:15:40;57618.09;;;-144.78;43.79
55994;BME280;67425;52.126;20.638;2023-04-03T04:18:06;57663.78;;;-144.78;44.37
55994;BME280;67425;52.126;20.638;2023-04-03T04:20:31;57638.88;;;-144.78;44.08
55994;BME280;67425;52.126;20.638;2023-04-03T04:22:57;57655.50;;;-144.78;45.08
55994;BME280;67425;52.126;20.638;2023-04-03T04:25:22;57667.94;;;-144.78;44.87
55994;BME280;67425;52.126;20.638;2023-04-03T04:27:47;57636.78;;;-144.78;44.31
55994;BME280;67425;52.126;20.638;2023-04-03T04:30:13;57647.19;;;-144.78;44.89
55994;BME280;67425;52.126;20.638;2023-04-03T04:32:39;57626.41;;;-144.78;44.25
55994;BME280;67425;52.126;20.638;2023-04-03T04:35:04;57640.94;;;-144.78;44.02
55994;BME280;67425;52.126;20.638;2023-04-03T04:37:30;57672.09;;;-144.78;45.74
55994;BME280;67425;52.126;20.638;2023-04-03T04:39:56;57649.25;;;-144.78;45.93
55994;BME280;67425;52.126;20.638;2023-04-03T04:42:21;57655.50;;;-144.78;44.79
55994;BME280;67425;52.126;20.638;2023-04-03T04:44:46;57682.50;;;-144.78;44.99
55994;BME280;67425;52.126;20.638;2023-04-03T04:47:12;57647.19;;;-144.78;45.19
55994;BME280;67425;52.126;20.638;2023-04-03T04:49:37;57638.88;;;-144.78;45.26
55994;BME280;67425;52.126;20.638;2023-04-03T04:52:02;57640.94;;;-144.78;44.94
55994;BME280;67425;52.126;20.638;2023-04-03T04:54:28;57655.50;;;-144.78;45.58
55994;BME280;67425;52.126;20.638;2023-04-03T04:56:53;57663.78;;;-144.78;46.01
55994;BME280;67425;52.126;20.638;2023-04-03T04:59:18;57651.34;;;-144.78;45.57
55994;BME280;67425;52.126;20.638;2023-04-03T05:01:44;57632.66;;;-144.78;45.06
55994;BME280;67425;52.126;20.638;2023-04-03T05:04:09;57626.41;;;-144.78;44.30
55994;BME280;67425;52.126;20.638;2023-04-03T05:06:35;57630.56;;;-144.78;44.63
55994;BME280;67425;52.126;20.638;2023-04-03T05:09:00;57651.34;;;-144.78;44.31
55994;BME280;67425;52.126;20.638;2023-04-03T05:11:26;57638.88;;;-144.78;45.02
55994;BME280;67425;52.126;20.638;2023-04-03T05:13:52;57678.34;;;-144.78;45.54
55994;BME280;67425;52.126;20.638;2023-04-03T05:16:17;57653.41;;;-144.78;45.06
55994;BME280;67425;52.126;20.638;2023-04-03T05:18:42;57670.03;;;-144.78;44.81
55994;BME280;67425;52.126;20.638;2023-04-03T05:21:08;57653.41;;;-144.78;44.92
55994;BME280;67425;52.126;20.638;2023-04-03T05:23:33;57638.88;;;-144.78;44.38
55994;BME280;67425;52.126;20.638;2023-04-03T05:25:58;57665.88;;;-144.78;45.46
55994;BME280;67425;52.126;20.638;2023-04-03T05:28:23;57661.72;;;-144.78;44.68
55994;BME280;67425;52.126;20.638;2023-04-03T05:30:53;57622.25;;;-144.78;43.24
55994;BME280;67425;52.126;20.638;2023-04-03T05:33:19;57640.94;;;-144.78;44.22
55994;BME280;67425;52.126;20.638;2023-04-03T05:35:44;57657.56;;;-144.78;43.82
55994;BME280;67425;52.126;20.638;2023-04-03T05:38:10;57632.66;;;-144.78;42.71
55994;BME280;67425;52.126;20.638;2023-04-03T05:40:36;57634.72;;;-144.78;42.74
55994;BME280;67425;52.126;20.638;2023-04-03T05:43:01;57593.19;;;-144.78;42.30
55994;BME280;67425;52.126;20.638;2023-04-03T05:45:26;57638.88;;;-144.78;43.70
55994;BME280;67425;52.126;20.638;2023-04-03T05:47:52;57628.50;;;-144.78;43.13
55994;BME280;67425;52.126;20.638;2023-04-03T05:50:17;57624.34;;;-144.78;43.21
55994;BME280;67425;52.126;20.638;2023-04-03T05:52:44;57601.50;;;-144.78;43.24
55994;BME280;67425;52.126;20.638;2023-04-03T05:55:10;57632.66;;;-144.78;42.94
55994;BME280;67425;52.126;20.638;2023-04-03T05:57:35;57634.72;;;-144.78;43.41
55994;BME280;67425;52.126;20.638;2023-04-03T06:00:02;57653.41;;;-144.78;43.38
55994;BME280;67425;52.126;20.638;2023-04-03T06:02:28;57601.50;;;-144.78;41.61
55994;BME280;67425;52.126;20.638;2023-04-03T06:04:53;57634.72;;;-144.78;42.15
55994;BME280;67425;52.126;20.638;2023-04-03T06:07:21;57655.50;;;-144.78;43.59
55994;BME280;67425;52.126;20.638;2023-04-03T06:09:51;57593.19;;;-144.78;42.71
55994;BME280;67425;52.126;20.638;2023-04-03T06:12:17;57636.78;;;-144.78;42.66
55994;BME280;67425;52.126;20.638;2023-04-03T06:14:42;57632.66;;;-144.78;43.82
55994;BME280;67425;52.126;20.638;2023-04-03T06:17:08;57636.78;;;-144.78;43.93
55994;BME280;67425;52.126;20.638;2023-04-03T06:19:34;57655.50;;;-144.78;44.15
55994;BME280;67425;52.126;20.638;2023-04-03T06:22:00;57643.03;;;-144.78;43.73
55994;BME280;67425;52.126;20.638;2023-04-03T06:24:26;57645.09;;;-144.78;43.56
55994;BME280;67425;52.126;20.638;2023-04-03T06:26:52;57634.72;;;-144.78;43.20
55994;BME280;67425;52.126;20.638;2023-04-03T06:29:21;57674.19;;;-144.78;44.62
55994;BME280;67425;52.126;20.638;2023-04-03T06:31:47;57597.34;;;-144.78;42.36
55994;BME280;67425;52.126;20.638;2023-04-03T06:34:13;57616.03;;;-144.78;42.28
55994;BME280;67425;52.126;20.638;2023-04-03T06:36:39;57628.50;;;-144.78;42.39
55994;BME280;67425;52.126;20.638;2023-04-03T06:39:05;57609.78;;;-144.78;42.15
55994;BME280;67425;52.126;20.638;2023-04-03T06:41:32;57626.41;;;-144.78;41.90
55994;BME280;67425;52.126;20.638;2023-04-03T06:43:57;57636.78;;;-144.78;42.39
55994;BME280;67425;52.126;20.638;2023-04-03T06:46:26;57636.78;;;-144.78;42.37
55994;BME280;67425;52.126;20.638;2023-04-03T06:48:52;57640.94;;;-144.78;42.63
55994;BME280;67425;52.126;20.638;2023-04-03T06:51:23;57618.09;;;-144.78;41.09
55994;BME280;67425;52.126;20.638;2023-04-03T06:53:51;57622.25;;;-144.78;42.71
55994;BME280;67425;52.126;20.638;2023-04-03T06:56:17;57595.25;;;-144.78;42.96
55994;BME280;67425;52.126;20.638;2023-04-03T06:58:44;57653.41;;;-144.78;44.40
55994;BME280;67425;52.126;20.638;2023-04-03T07:01:11;57618.09;;;-144.78;43.47
55994;BME280;67425;52.126;20.638;2023-04-03T07:03:37;57611.88;;;-144.78;42.46
55994;BME280;67425;52.126;20.638;2023-04-03T07:06:04;57655.50;;;-144.78;43.27
55994;BME280;67425;52.126;20.638;2023-04-03T07:08:30;57653.41;;;-144.78;43.58
55994;BME280;67425;52.126;20.638;2023-04-03T07:10:56;57622.25;;;-144.78;42.42
55994;BME280;67425;52.126;20.638;2023-04-03T07:13:21;57607.72;;;-144.78;41.33
55994;BME280;67425;52.126;20.638;2023-04-03T07:15:47;57607.72;;;-144.78;41.54
55994;BME280;67425;52.126;20.638;2023-04-03T07:18:13;57551.66;;;-144.78;40.54
55994;BME280;67425;52.126;20.638;2023-04-03T07:20:38;57624.34;;;-144.78;42.06
55994;BME280;67425;52.126;20.638;2023-04-03T07:23:04;57605.66;;;-144.78;41.08
55994;BME280;67425;52.126;20.638;2023-04-03T07:25:29;57580.72;;;-144.78;41.84
55994;BME280;67425;52.126;20.638;2023-04-03T07:27:55;57595.25;;;-144.78;41.51
55994;BME280;67425;52.126;20.638;2023-04-03T07:30:21;57609.78;;;-144.78;42.14
55994;BME280;67425;52.126;20.638;2023-04-03T07:32:47;57607.72;;;-144.78;42.78
55994;BME280;67425;52.126;20.638;2023-04-03T07:35:12;57586.94;;;-144.78;41.57
55994;BME280;67425;52.126;20.638;2023-04-03T07:37:38;57591.09;;;-144.78;41.64
55994;BME280;67425;52.126;20.638;2023-04-03T07:40:03;57578.66;;;-144.78;41.21
55994;BME280;67425;52.126;20.638;2023-04-03T07:42:29;57555.81;;;-144.78;40.88
55994;BME280;67425;52.126;20.638;2023-04-03T07:44:55;57593.19;;;-144.78;40.82
55994;BME280;67425;52.126;20.638;2023-04-03T07:47:21;57541.25;;;-144.78;40.01
55994;BME280;67425;52.126;20.638;2023-04-03T07:49:47;57568.25;;;-144.78;39.64
55994;BME280;67425;52.126;20.638;2023-04-03T07:52:13;57549.56;;;-144.78;39.41
55994;BME280;67425;52.126;20.638;2023-04-03T07:54:40;57532.97;;;-144.78;39.43
55994;BME280;67425;52.126;20.638;2023-04-03T07:57:06;57576.56;;;-144.78;39.57
55994;BME280;67425;52.126;20.638;2023-04-03T07:59:31;57539.19;;;-144.78;39.05
55994;BME280;67425;52.126;20.638;2023-04-03T08:01:57;57568.25;;;-144.78;39.06
55994;BME280;67425;52.126;20.638;2023-04-03T08:04:22;57562.03;;;-144.78;39.13
55994;BME280;67425;52.126;20.638;2023-04-03T08:06:48;57586.94;;;-144.78;40.86
55994;BME280;67425;52.126;20.638;2023-04-03T08:09:16;57543.34;;;-144.78;38.98
55994;BME280;67425;52.126;20.638;2023-04-03T08:11:42;57528.81;;;-144.78;37.24
55994;BME280;67425;52.126;20.638;2023-04-03T08:14:07;57493.50;;;-144.78;36.70
55994;BME280;67425;52.126;20.638;2023-04-03T08:16:33;57537.09;;;-144.78;37.10
55994;BME280;67425;52.126;20.638;2023-04-03T08:18:58;57562.03;;;-144.78;39.09
55994;BME280;67425;52.126;20.638;2023-04-03T08:21:24;57505.97;;;-144.78;37.63
55994;BME280;67425;52.126;20.638;2023-04-03T08:23:50;57518.41;;;-144.78;38.04
55994;BME280;67425;52.126;20.638;2023-04-03T08:26:18;57530.88;;;-144.78;37.71
55994;BME280;67425;52.126;20.638;2023-04-03T08:28:44;57520.50;;;-144.78;37.25
55994;BME280;67425;52.126;20.638;2023-04-03T08:31:12;57578.66;;;-144.78;37.83
55994;BME280;67425;52.126;20.638;2023-04-03T08:33:39;57545.41;;;-144.78;37.37
55994;BME280;67425;52.126;20.638;2023-04-03T08:36:06;57516.34;;;-144.78;35.32
55994;BME280;67425;52.126;20.638;2023-04-03T08:38:33;57535.03;;;-144.78;35.90
55994;BME280;67425;52.126;20.638;2023-04-03T08:41:11;57549.56;;;-144.78;35.70
55994;BME280;67425;52.126;20.638;2023-04-03T08:44:04;57568.25;;;-144.78;36.55
55994;BME280;67425;52.126;20.638;2023-04-03T08:49:33;57526.72;;;-144.78;35.78
55994;BME280;67425;52.126;20.638;2023-04-03T08:52:03;57514.25;;;-144.78;35.50
55994;BME280;67425;52.126;20.638;2023-04-03T08:54:33;57524.66;;;-144.78;34.73
55994;BME280;67425;52.126;20.638;2023-04-03T08:57:02;57518.41;;;-144.78;33.93
55994;BME280;67425;52.126;20.638;2023-04-03T08:59:33;57493.50;;;-144.78;34.15
55994;BME280;67425;52.126;20.638;2023-04-03T09:02:04;57456.13;;;-144.78;34.03
55994;BME280;67425;52.126;20.638;2023-04-03T09:04:32;57508.03;;;-144.78;34.99
55994;BME280;67425;52.126;20.638;2023-04-03T09:07:03;57508.03;;;-144.78;33.85
55994;BME280;67425;52.126;20.638;2023-04-03T09:09:39;57518.41;;;-144.78;34.24
55994;BME280;67425;52.126;20.638;2023-04-03T09:12:21;57503.88;;;-144.78;33.34
55994;BME280;67425;52.126;20.638;2023-04-03T09:22:47;57439.50;;;-144.78;32.50
55994;BME280;67425;52.126;20.638;2023-04-03T09:25:17;57460.28;;;-144.78;33.38
55994;BME280;67425;52.126;20.638;2023-04-03T09:27:44;57489.34;;;-144.78;33.04
55994;BME280;67425;52.126;20.638;2023-04-03T09:30:25;57472.72;;;-144.78;32.65
55994;BME280;67425;52.126;20.638;2023-04-03T09:32:53;57510.13;;;-144.78;33.00
55994;BME280;67425;52.126;20.638;2023-04-03T09:35:30;57481.03;;;-144.78;32.25
55994;BME280;67425;52.126;20.638;2023-04-03T09:38:17;57470.66;;;-144.78;33.40
55994;BME280;67425;52.126;20.638;2023-04-03T09:40:49;57481.03;;;-144.78;33.44
55994;BME280;67425;52.126;20.638;2023-04-03T09:43:26;57483.13;;;-144.78;34.48
55994;BME280;67425;52.126;20.638;2023-04-03T09:45:52;57510.13;;;-144.78;33.18
55994;BME280;67425;52.126;20.638;2023-04-03T09:48:21;57476.88;;;-144.78;33.23
55994;BME280;67425;52.126;20.638;2023-04-03T09:53:42;57510.13;;;-144.78;32.69
55994;BME280;67425;52.126;20.638;2023-04-03T10:04:13;57514.25;;;-144.78;33.06
55994;BME280;67425;52.126;20.638;2023-04-03T10:06:56;57476.88;;;-144.78;33.38
55994;BME280;67425;52.126;20.638;2023-04-03T10:09:29;57470.66;;;-144.78;33.50
55994;BME280;67425;52.126;20.638;2023-04-03T10:12:03;57472.72;;;-144.78;34.31
55994;BME280;67425;52.126;20.638;2023-04-03T10:14:40;57516.34;;;-144.78;33.54
55994;BME280;67425;52.126;20.638;2023-04-03T10:17:13;57508.03;;;-144.78;33.23
55994;BME280;67425;52.126;20.638;2023-04-03T10:19:46;57508.03;;;-144.78;33.46
55994;BME280;67425;52.126;20.638;2023-04-03T10:22:20;57514.25;;;-144.78;32.97
55994;BME280;67425;52.126;20.638;2023-04-03T10:28:15;57491.41;;;-144.78;33.96
55994;BME280;67425;52.126;20.638;2023-04-03T10:31:08;57505.97;;;-144.78;33.58
55994;BME280;67425;52.126;20.638;2023-04-03T10:41:59;57489.34;;;-144.78;32.53
55994;BME280;67425;52.126;20.638;2023-04-03T10:45:10;57518.41;;;-144.78;33.47
55994;BME280;67425;52.126;20.638;2023-04-03T10:56:40;57481.03;;;-144.78;33.50
55994;BME280;67425;52.126;20.638;2023-04-03T10:59:29;57437.44;;;-144.78;33.69
55994;BME280;67425;52.126;20.638;2023-04-03T11:01:58;57495.56;;;-144.78;32.81
55994;BME280;67425;52.126;20.638;2023-04-03T11:04:27;57460.28;;;-144.78;32.87
55994;BME280;67425;52.126;20.638;2023-04-03T11:07:11;57470.66;;;-144.78;32.65
55994;BME280;67425;52.126;20.638;2023-04-03T11:09:41;57481.03;;;-144.78;32.77
55994;BME280;67425;52.126;20.638;2023-04-03T11:12:23;57476.88;;;-144.78;32.08
55994;BME280;67425;52.126;20.638;2023-04-03T11:14:51;57570.34;;;-144.78;35.58
55994;BME280;67425;52.126;20.638;2023-04-03T11:19:52;57499.72;;;-144.78;34.05
55994;BME280;67425;52.126;20.638;2023-04-03T11:22:35;57535.03;;;-144.78;34.32
55994;BME280;67425;52.126;20.638;2023-04-03T11:25:24;57549.56;;;-144.78;34.86
55994;BME280;67425;52.126;20.638;2023-04-03T11:30:23;57566.19;;;-144.78;34.82
55994;BME280;67425;52.126;20.638;2023-04-03T11:35:48;57547.50;;;-144.78;34.34
55994;BME280;67425;52.126;20.638;2023-04-03T11:38:23;57545.41;;;-144.78;33.79
55994;BME280;67425;52.126;20.638;2023-04-03T11:40:52;57578.66;;;-144.78;35.61
55994;BME280;67425;52.126;20.638;2023-04-03T11:50:46;57532.97;;;-144.78;34.04
55994;BME280;67425;52.126;20.638;2023-04-03T11:58:19;57535.03;;;-144.78;34.60
55994;BME280;67425;52.126;20.638;2023-04-03T12:16:10;57499.72;;;-144.78;32.32
55994;BME280;67425;52.126;20.638;2023-04-03T12:24:13;57522.56;;;-144.78;32.84
55994;BME280;67425;52.126;20.638;2023-04-03T12:29:38;57497.66;;;-144.78;33.35
55994;BME280;67425;52.126;20.638;2023-04-03T12:32:24;57535.03;;;-144.78;33.41
55994;BME280;67425;52.126;20.638;2023-04-03T12:45:22;57501.81;;;-144.78;32.25
55994;BME280;67425;52.126;20.638;2023-04-03T12:47:51;57505.97;;;-144.78;30.98
55994;BME280;67425;52.126;20.638;2023-04-03T12:50:23;57449.88;;;-144.78;30.97
55994;BME280;67425;52.126;20.638;2023-04-03T12:53:01;57472.72;;;-144.78;30.78
55994;BME280;67425;52.126;20.638;2023-04-03T12:55:27;57485.19;;;-144.78;31.27
55994;BME280;67425;52.126;20.638;2023-04-03T12:57:53;57518.41;;;-144.78;31.57
55994;BME280;67425;52.126;20.638;2023-04-03T13:02:45;57503.88;;;-144.78;31.72
55994;BME280;67425;52.126;20.638;2023-04-03T13:05:15;57495.56;;;-144.78;32.44
55994;BME280;67425;52.126;20.638;2023-04-03T13:07:41;57501.81;;;-144.78;32.12
55994;BME280;67425;52.126;20.638;2023-04-03T13:12:57;57489.34;;;-144.78;30.10
55994;BME280;67425;52.126;20.638;2023-04-03T13:15:39;57462.34;;;-144.78;30.27
55994;BME280;67425;52.126;20.638;2023-04-03T13:18:25;57447.81;;;-144.78;29.94
55994;BME280;67425;52.126;20.638;2023-04-03T13:20:51;57451.97;;;-144.78;29.81
55994;BME280;67425;52.126;20.638;2023-04-03T13:23:19;57449.88;;;-144.78;30.46
55994;BME280;67425;52.126;20.638;2023-04-03T13:25:46;57470.66;;;-144.78;31.09
55994;BME280;67425;52.126;20.638;2023-04-03T13:28:16;57499.72;;;-144.78;31.09
55994;BME280;67425;52.126;20.638;2023-04-03T13:31:05;57474.81;;;-144.78;30.75
55994;BME280;67425;52.126;20.638;2023-04-03T13:33:34;57476.88;;;-144.78;30.68
55994;BME280;67425;52.126;20.638;2023-04-03T13:36:21;57447.81;;;-144.78;30.58
55994;BME280;67425;52.126;20.638;2023-04-03T13:41:40;57499.72;;;-144.78;32.15
55994;BME280;67425;52.126;20.638;2023-04-03T13:46:47;57501.81;;;-144.78;31.69
55994;BME280;67425;52.126;20.638;2023-04-03T13:49:33;57460.28;;;-144.78;31.32
55994;BME280;67425;52.126;20.638;2023-04-03T13:52:00;57503.88;;;-144.78;31.48
55994;BME280;67425;52.126;20.638;2023-04-03T13:54:35;57481.03;;;-144.78;31.29
55994;BME280;67425;52.126;20.638;2023-04-03T13:57:02;57505.97;;;-144.78;31.53
55994;BME280;67425;52.126;20.638;2023-04-03T13:59:33;57468.56;;;-144.78;31.48
55994;BME280;67425;52.126;20.638;2023-04-03T14:04:29;57499.72;;;-144.78;32.97
55994;BME280;67425;52.126;20.638;2023-04-03T14:06:55;57464.41;;;-144.78;31.86
55994;BME280;67425;52.126;20.638;2023-04-03T14:09:23;57495.56;;;-144.78;31.59
55994;BME280;67425;52.126;20.638;2023-04-03T14:11:50;57483.13;;;-144.78;31.48
55994;BME280;67425;52.126;20.638;2023-04-03T14:14:27;57485.19;;;-144.78;31.90
55994;BME280;67425;52.126;20.638;2023-04-03T14:16:57;57456.13;;;-144.78;32.06
55994;BME280;67425;52.126;20.638;2023-04-03T14:19:27;57497.66;;;-144.78;32.07
55994;BME280;67425;52.126;20.638;2023-04-03T14:21:53;57501.81;;;-144.78;32.18
55994;BME280;67425;52.126;20.638;2023-04-03T14:24:19;57503.88;;;-144.78;32.66
55994;BME280;67425;52.126;20.638;2023-04-03T14:26:45;57460.28;;;-144.78;31.83
55994;BME280;67425;52.126;20.638;2023-04-03T14:29:12;57489.34;;;-144.78;32.07
55994;BME280;67425;52.126;20.638;2023-04-03T14:31:39;57485.19;;;-144.78;31.51
55994;BME280;67425;52.126;20.638;2023-04-03T14:34:04;57526.72;;;-144.78;31.02